createdAt,value
2022-08-05T00:00:52.164Z,98506.94
2022-08-05T00:03:55.089Z,98500.44
2022-08-05T00:07:00.146Z,98499.75
2022-08-05T00:10:27.091Z,98490.91
2022-08-05T00:13:39.648Z,98496.69
2022-08-05T00:16:52.497Z,98495.28
2022-08-05T00:20:02.838Z,98496.00
2022-08-05T00:23:12.460Z,98496.44
2022-08-05T00:26:16.489Z,98493.81
2022-08-05T00:29:25.711Z,98500.34
2022-08-05T00:32:28.574Z,98493.97
2022-08-05T00:35:33.209Z,98494.56
2022-08-05T00:38:36.216Z,98489.78
2022-08-05T00:41:52.217Z,98486.47
2022-08-05T00:44:58.409Z,98491.37
2022-08-05T00:48:05.804Z,98472.56
2022-08-05T00:51:09.032Z,98484.00
2022-08-05T00:54:31.594Z,98433.72
2022-08-05T00:57:55.550Z,98480.41
2022-08-05T01:00:57.181Z,98471.00
2022-08-05T01:04:01.239Z,98479.09
2022-08-05T01:07:05.244Z,98484.59
2022-08-05T01:10:10.547Z,98484.84
2022-08-05T01:13:57.332Z,98476.63
2022-08-05T01:17:05.367Z,98479.69
2022-08-05T01:20:27.058Z,98475.31
2022-08-05T01:23:36.432Z,98476.34
2022-08-05T01:27:00.123Z,98473.03
2022-08-05T01:30:19.067Z,98467.66
2022-08-05T01:33:53.503Z,98457.69
2022-08-05T01:37:01.619Z,98468.09
2022-08-05T01:40:06.817Z,98471.28
2022-08-05T01:43:10.220Z,98475.00
2022-08-05T01:46:41.925Z,98456.19
2022-08-05T01:50:02.296Z,98478.47
2022-08-05T01:53:13.953Z,98482.81
2022-08-05T01:58:10.035Z,98461.37
2022-08-05T01:59:41.255Z,98477.03
2022-08-05T02:02:56.366Z,98478.78
2022-08-05T02:06:33.328Z,98481.94
2022-08-05T02:09:28.271Z,98475.09
2022-08-05T02:12:44.899Z,98480.56
2022-08-05T02:16:16.441Z,98481.25
2022-08-05T02:19:47.440Z,98477.63
2022-08-05T02:22:59.854Z,98471.16
2022-08-05T02:26:05.757Z,98472.00
2022-08-05T02:29:21.706Z,98465.41
2022-08-05T02:32:31.658Z,98473.75
2022-08-05T02:35:37.604Z,98471.88
2022-08-05T02:38:42.956Z,98475.19
2022-08-05T02:42:00.790Z,98476.31
2022-08-05T02:45:04.885Z,98480.78
2022-08-05T02:48:12.445Z,98471.41
2022-08-05T02:51:16.273Z,98478.44
2022-08-05T02:54:35.651Z,98474.69
2022-08-05T02:58:11.881Z,98478.00
2022-08-05T03:01:03.390Z,98464.31
2022-08-05T03:04:13.991Z,98467.31
2022-08-05T03:07:40.391Z,98471.75
2022-08-05T03:11:01.116Z,98472.66
2022-08-05T03:14:08.064Z,98465.44
2022-08-05T03:17:11.100Z,98460.91
2022-08-05T03:20:13.978Z,98468.00
2022-08-05T03:23:18.129Z,98459.31
2022-08-05T03:26:30.873Z,98456.31
2022-08-05T03:29:44.818Z,98462.22
2022-08-05T03:33:07.280Z,98449.09
2022-08-05T03:36:12.115Z,98463.25
2022-08-05T03:39:20.173Z,98462.97
2022-08-05T03:42:32.376Z,98464.84
2022-08-05T03:45:55.208Z,98456.91
2022-08-05T03:48:59.641Z,98462.50
2022-08-05T03:52:39.332Z,98463.50
2022-08-05T03:56:05.915Z,98464.78
2022-08-05T03:59:00.634Z,98468.81
2022-08-05T04:02:04.801Z,98450.44
2022-08-05T04:05:10.387Z,98463.63
2022-08-05T04:08:14.609Z,98472.75
2022-08-05T04:11:50.853Z,98467.09
2022-08-05T04:14:57.628Z,98468.87
2022-08-05T04:18:06.811Z,98470.78
2022-08-05T04:21:11.129Z,98456.34
2022-08-05T04:24:19.088Z,98467.66
2022-08-05T04:27:41.882Z,98465.66
2022-08-05T04:30:48.042Z,98464.94
2022-08-05T04:34:18.576Z,98448.91
2022-08-05T04:37:13.694Z,98466.81
2022-08-05T04:40:17.056Z,98468.97
2022-08-05T04:43:22.434Z,98472.84
2022-08-05T04:46:28.149Z,98469.50
2022-08-05T04:50:01.119Z,98471.41
2022-08-05T04:52:54.181Z,98470.00
2022-08-05T04:56:14.745Z,98468.56
2022-08-05T04:59:22.995Z,98476.94
2022-08-05T05:02:43.304Z,98463.53
2022-08-05T05:06:39.187Z,98463.91
2022-08-05T05:09:14.027Z,98468.53
2022-08-05T05:12:19.906Z,98462.59
2022-08-05T05:15:57.004Z,98464.47
2022-08-05T05:19:16.375Z,98457.09
2022-08-05T05:22:24.452Z,98449.31
2022-08-05T05:25:32.564Z,98455.13
2022-08-05T05:28:44.971Z,98463.47
2022-08-05T05:31:48.002Z,98463.78
2022-08-05T05:34:52.452Z,98463.19
2022-08-05T05:37:59.464Z,98459.72
2022-08-05T05:41:04.573Z,98458.28
2022-08-05T05:44:35.794Z,98458.44
2022-08-05T05:48:06.224Z,98456.69
2022-08-05T05:50:57.873Z,98462.00
2022-08-05T05:54:00.925Z,98460.69
2022-08-05T05:57:03.701Z,98460.22
2022-08-05T06:00:19.118Z,98461.06
2022-08-05T06:03:40.197Z,98453.22
2022-08-05T06:06:47.260Z,98467.06
2022-08-05T06:10:04.349Z,98453.28
2022-08-05T06:13:09.689Z,98456.03
2022-08-05T06:16:31.754Z,98453.28
2022-08-05T06:19:35.777Z,98457.41
2022-08-05T06:22:40.562Z,98452.81
2022-08-05T06:26:13.079Z,98459.28
2022-08-05T06:29:25.041Z,98450.12
2022-08-05T06:32:31.058Z,98458.00
2022-08-05T06:36:03.715Z,98466.63
2022-08-05T06:38:56.689Z,98465.75
2022-08-05T06:42:04.000Z,98462.44
2022-08-05T06:45:09.177Z,98463.75
2022-08-05T06:48:50.373Z,98465.62
2022-08-05T06:51:34.988Z,98465.91
2022-08-05T06:54:38.876Z,98462.69
2022-08-05T06:58:02.881Z,98462.41
2022-08-05T07:01:06.457Z,98463.00
2022-08-05T07:04:09.485Z,98462.72
2022-08-05T07:07:12.818Z,98458.84
2022-08-05T07:10:18.044Z,98453.34
2022-08-05T07:13:58.792Z,98461.72
2022-08-05T07:17:58.596Z,98465.88
2022-08-05T07:20:37.215Z,98478.53
2022-08-05T07:23:49.879Z,98465.75
2022-08-05T07:26:53.497Z,98467.66
2022-08-05T07:30:27.726Z,98465.75
2022-08-05T07:33:36.477Z,98467.78
2022-08-05T07:36:40.160Z,98453.66
2022-08-05T07:40:26.359Z,98459.94
2022-08-05T07:43:20.401Z,98473.19
2022-08-05T07:46:28.411Z,98466.47
2022-08-05T07:49:31.758Z,98465.19
2022-08-05T07:52:44.255Z,98468.56
2022-08-05T07:56:05.464Z,98461.13
2022-08-05T07:59:09.964Z,98466.38
2022-08-05T08:02:15.711Z,98465.38
2022-08-05T08:05:20.582Z,98462.31
2022-08-05T08:08:23.205Z,98452.59
2022-08-05T08:11:47.061Z,98451.03
2022-08-05T08:14:50.880Z,98470.22
2022-08-05T08:17:54.805Z,98470.38
2022-08-05T08:21:02.288Z,98467.38
2022-08-05T08:24:13.552Z,98464.72
2022-08-05T08:27:16.758Z,98456.38
2022-08-05T08:30:33.919Z,98466.97
2022-08-05T08:33:40.663Z,98465.47
2022-08-05T08:36:49.121Z,98459.50
2022-08-05T08:39:57.508Z,98457.22
2022-08-05T08:45:17.109Z,98464.88
2022-08-05T08:46:24.462Z,98459.09
2022-08-05T08:50:06.197Z,98454.47
2022-08-05T08:52:55.888Z,98454.75
2022-08-05T08:56:04.015Z,98458.09
2022-08-05T08:59:14.929Z,98459.03
2022-08-05T09:02:24.340Z,98448.66
2022-08-05T09:05:38.586Z,98456.00
2022-08-05T09:08:52.455Z,98461.19
2022-08-05T09:11:59.333Z,98454.34
2022-08-05T09:15:09.562Z,98464.59
2022-08-05T09:18:13.440Z,98456.22
2022-08-05T09:21:20.688Z,98446.94
2022-08-05T09:24:39.051Z,98449.31
2022-08-05T09:28:05.252Z,98445.50
2022-08-05T09:32:35.962Z,98447.81
2022-08-05T09:34:48.443Z,98434.22
2022-08-05T09:38:12.072Z,98428.50
2022-08-05T09:41:16.455Z,98423.97
2022-08-05T09:44:42.533Z,98432.88
2022-08-05T09:47:55.171Z,98417.41
2022-08-05T09:51:03.438Z,98423.44
2022-08-05T09:54:21.417Z,98421.00
2022-08-05T09:57:35.190Z,98409.66
2022-08-05T10:00:38.632Z,98416.06
2022-08-05T10:03:58.749Z,98415.59
2022-08-05T10:07:19.481Z,98423.37
2022-08-05T10:10:32.672Z,98413.00
2022-08-05T10:13:45.536Z,98409.03
2022-08-05T10:16:53.123Z,98407.41
2022-08-05T10:20:04.020Z,98401.53
2022-08-05T10:23:34.091Z,98396.69
2022-08-05T10:26:51.654Z,98399.38
2022-08-05T10:31:19.913Z,98399.63
2022-08-05T10:33:37.099Z,98382.81
2022-08-05T10:36:42.949Z,98394.38
2022-08-05T10:39:59.442Z,98389.75
2022-08-05T10:43:35.570Z,98380.97
2022-08-05T10:46:50.709Z,98385.25
2022-08-05T10:50:32.276Z,98379.81
2022-08-05T10:53:39.426Z,98378.25
2022-08-05T10:56:53.483Z,98379.31
2022-08-05T11:00:19.071Z,98376.31
2022-08-05T11:03:26.266Z,98370.66
2022-08-05T11:06:31.048Z,98378.84
2022-08-05T11:09:47.251Z,98363.94
2022-08-05T11:12:50.852Z,98366.75
2022-08-05T11:16:47.427Z,98365.62
2022-08-05T11:20:10.007Z,98363.78
2022-08-05T11:23:33.273Z,98351.38
2022-08-05T11:26:36.482Z,98350.91
2022-08-05T11:29:41.019Z,98349.34
2022-08-05T11:32:43.701Z,98354.06
2022-08-05T11:36:08.238Z,98347.37
2022-08-05T11:39:14.372Z,98345.66
2022-08-05T11:42:23.567Z,98348.44
2022-08-05T11:46:29.865Z,98345.78
2022-08-05T11:48:54.333Z,98349.94
2022-08-05T11:51:57.617Z,98344.06
2022-08-05T11:55:07.283Z,98345.56
2022-08-05T11:58:12.050Z,98339.34
2022-08-05T12:01:21.050Z,98345.56
2022-08-05T12:04:26.143Z,98346.53
2022-08-05T12:08:03.300Z,98343.72
2022-08-05T12:10:59.428Z,98331.03
2022-08-05T12:14:08.590Z,98330.28
2022-08-05T12:18:03.311Z,98325.78
2022-08-05T12:20:38.824Z,98331.50
2022-08-05T12:23:52.783Z,98322.41
2022-08-05T12:26:56.513Z,98328.44
2022-08-05T12:30:15.450Z,98321.66
2022-08-05T12:33:27.579Z,98324.84
2022-08-05T12:36:31.141Z,98319.59
2022-08-05T12:39:37.235Z,98317.44
2022-08-05T12:42:41.544Z,98319.09
2022-08-05T12:45:54.792Z,98312.69
2022-08-05T12:49:00.692Z,98320.56
2022-08-05T12:52:12.472Z,98307.13
2022-08-05T12:55:26.325Z,98309.22
2022-08-05T12:58:50.396Z,98310.66
2022-08-05T13:02:07.087Z,98310.66
2022-08-05T13:05:11.155Z,98231.88
2022-08-05T13:08:18.591Z,98306.59
2022-08-05T13:11:35.071Z,98300.87
2022-08-05T13:14:47.943Z,98293.53
2022-08-05T13:18:08.554Z,98282.91
2022-08-05T13:21:11.404Z,98284.91
2022-08-05T13:24:36.513Z,98278.44
2022-08-05T13:27:46.709Z,98276.81
2022-08-05T13:30:53.181Z,98274.25
2022-08-05T13:34:21.145Z,98259.50
2022-08-05T13:37:34.664Z,98257.81
2022-08-05T13:40:49.955Z,98252.34
2022-08-05T13:43:55.453Z,98253.28
2022-08-05T13:47:01.827Z,98251.53
2022-08-05T13:50:11.202Z,98251.66
2022-08-05T13:53:16.026Z,98245.22
2022-08-05T13:56:19.203Z,98248.13
2022-08-05T13:59:25.000Z,98232.84
2022-08-05T14:02:29.787Z,98233.94
2022-08-05T14:06:24.565Z,98224.94
2022-08-05T14:08:57.005Z,98236.69
2022-08-05T14:12:17.299Z,98224.72
2022-08-05T14:16:07.885Z,98219.91
2022-08-05T14:18:43.827Z,98217.59
2022-08-05T14:22:10.446Z,98220.94
2022-08-05T14:25:19.204Z,98222.22
2022-08-05T14:28:26.323Z,98221.16
2022-08-05T14:32:03.972Z,98209.31
2022-08-05T14:34:56.847Z,98204.91
2022-08-05T14:38:01.202Z,98212.69
2022-08-05T14:41:07.464Z,98210.13
2022-08-05T14:44:20.541Z,98207.19
2022-08-05T14:47:58.396Z,98204.63
2022-08-05T14:50:46.365Z,98203.66
2022-08-05T14:54:26.791Z,98200.09
2022-08-05T14:57:14.334Z,98202.06
2022-08-05T15:00:20.034Z,98197.34
2022-08-05T15:03:23.050Z,98194.50
2022-08-05T15:06:27.988Z,98197.19
2022-08-05T15:09:51.919Z,98188.81
2022-08-05T15:13:03.640Z,98193.31
2022-08-05T15:16:06.807Z,98185.22
2022-08-05T15:19:23.305Z,98178.91
2022-08-05T15:22:28.406Z,98181.44
2022-08-05T15:25:41.363Z,98177.78
2022-08-05T15:28:54.091Z,98183.38
2022-08-05T15:31:56.624Z,98178.19
2022-08-05T15:34:59.553Z,98163.19
2022-08-05T15:38:34.854Z,98164.34
2022-08-05T15:41:55.837Z,98164.87
2022-08-05T15:44:58.290Z,98162.16
2022-08-05T15:48:02.473Z,98159.25
2022-08-05T15:51:05.872Z,98160.03
2022-08-05T15:54:09.054Z,98151.38
2022-08-05T15:57:17.707Z,98149.59
2022-08-05T16:00:30.548Z,98149.72
2022-08-05T16:03:35.668Z,98150.34
2022-08-05T16:06:43.559Z,98152.06
2022-08-05T16:09:46.841Z,98147.41
2022-08-05T16:12:49.641Z,98148.22
2022-08-05T16:15:52.593Z,98149.22
2022-08-05T16:18:55.355Z,98141.37
2022-08-05T16:22:03.450Z,98155.41
2022-08-05T16:25:09.905Z,98139.41
2022-08-05T16:28:14.155Z,98149.72
2022-08-05T16:31:18.341Z,98151.06
2022-08-05T16:34:23.178Z,98146.59
2022-08-05T16:38:16.394Z,98147.72
2022-08-05T16:40:55.358Z,98148.34
2022-08-05T16:44:02.858Z,98150.34
2022-08-05T16:47:07.013Z,98151.25
2022-08-05T16:50:30.107Z,98136.69
2022-08-05T16:54:05.649Z,98143.56
2022-08-05T16:56:56.956Z,98134.13
2022-08-05T17:00:08.290Z,98136.53
2022-08-05T17:03:15.248Z,98143.41
2022-08-05T17:06:24.527Z,98143.88
2022-08-05T17:09:30.538Z,98145.59
2022-08-05T17:12:51.514Z,98145.34
2022-08-05T17:16:02.742Z,98139.16
2022-08-05T17:19:17.917Z,98139.13
2022-08-05T17:22:25.644Z,98152.62
2022-08-05T17:25:39.661Z,98147.00
2022-08-05T17:28:42.841Z,98152.09
2022-08-05T17:31:58.191Z,98153.34
2022-08-05T17:35:02.090Z,98159.78
2022-08-05T17:38:08.309Z,98161.28
2022-08-05T17:41:22.797Z,98154.84
2022-08-05T17:44:33.789Z,98164.28
2022-08-05T17:47:38.345Z,98167.47
2022-08-05T17:50:42.088Z,98168.75
2022-08-05T17:53:45.922Z,98170.25
2022-08-05T17:56:57.441Z,98166.50
2022-08-05T18:00:04.885Z,98163.91
2022-08-05T18:03:08.950Z,98165.63
2022-08-05T18:06:15.203Z,98171.22
2022-08-05T18:09:18.553Z,98164.09
2022-08-05T18:12:23.755Z,98163.66
2022-08-05T18:15:27.660Z,98164.03
2022-08-05T18:18:34.029Z,98164.81
2022-08-05T18:22:09.323Z,98170.56
2022-08-05T18:25:06.718Z,98172.25
2022-08-05T18:28:09.882Z,98168.53
2022-08-05T18:31:12.714Z,98172.59
2022-08-05T18:34:21.729Z,98172.50
2022-08-05T18:37:34.416Z,98165.53
2022-08-05T18:41:58.004Z,98173.56
2022-08-05T18:44:07.975Z,98175.28
2022-08-05T18:47:12.285Z,98175.59
2022-08-05T18:50:45.287Z,98174.56
2022-08-05T18:53:50.827Z,98183.44
2022-08-05T18:56:53.385Z,98180.16
2022-08-05T19:00:02.406Z,98182.41
2022-08-05T19:03:06.137Z,98187.06
2022-08-05T19:06:19.119Z,98182.22
2022-08-05T19:09:25.432Z,98192.59
2022-08-05T19:12:29.789Z,98189.63
2022-08-05T19:15:58.976Z,98199.31
2022-08-05T19:18:57.144Z,98191.69
2022-08-05T19:21:59.838Z,98192.84
2022-08-05T19:25:04.172Z,98196.69
2022-08-05T19:28:06.824Z,98193.22
2022-08-05T19:31:13.474Z,98193.31
2022-08-05T19:34:20.445Z,98196.25
2022-08-05T19:37:34.847Z,98192.25
2022-08-05T19:40:48.689Z,98187.19
2022-08-05T19:44:06.955Z,98192.63
2022-08-05T19:47:16.624Z,98192.75
2022-08-05T19:50:20.145Z,98182.03
2022-08-05T19:54:03.411Z,98174.50
2022-08-05T19:56:45.673Z,98177.94
2022-08-05T19:59:59.549Z,98184.03
2022-08-05T20:03:14.014Z,98185.75
2022-08-05T20:06:28.622Z,98189.75
2022-08-05T20:09:54.909Z,98191.69
2022-08-05T20:12:55.304Z,98193.22
2022-08-05T20:15:59.624Z,98183.47
2022-08-05T20:19:03.460Z,98195.88
2022-08-05T20:22:05.989Z,98195.09
2022-08-05T20:25:12.525Z,98195.28
2022-08-05T20:28:15.062Z,98189.06
2022-08-05T20:31:21.688Z,98200.44
2022-08-05T20:34:25.672Z,98196.66
2022-08-05T20:38:06.115Z,98201.03
2022-08-05T20:40:51.319Z,98196.44
2022-08-05T20:43:59.928Z,98200.28
2022-08-05T20:47:06.728Z,98196.34
2022-08-05T20:50:11.959Z,98187.22
2022-08-05T20:53:36.800Z,98204.69
2022-08-05T20:56:41.911Z,98198.56
2022-08-05T21:00:10.336Z,98204.63
2022-08-05T21:03:08.394Z,98200.75
2022-08-05T21:06:28.305Z,98194.97
2022-08-05T21:09:33.781Z,98200.00
2022-08-05T21:12:39.704Z,98199.69
2022-08-05T21:16:01.314Z,98196.47
2022-08-05T21:19:04.365Z,98199.25
2022-08-05T21:22:07.353Z,98200.34
2022-08-05T21:25:12.448Z,98201.59
2022-08-05T21:28:18.458Z,98201.44
2022-08-05T21:31:26.057Z,98197.31
2022-08-05T21:34:43.976Z,98206.62
2022-08-05T21:37:58.684Z,98209.06
2022-08-05T21:41:01.662Z,98208.88
2022-08-05T21:44:07.036Z,98216.97
2022-08-05T21:47:17.308Z,98210.31
2022-08-05T21:50:33.339Z,98214.62
2022-08-05T21:53:37.501Z,98211.91
2022-08-05T21:56:44.476Z,98217.09
2022-08-05T22:00:03.993Z,98211.09
2022-08-05T22:03:15.369Z,98217.28
2022-08-05T22:06:22.183Z,98209.19
2022-08-05T22:09:25.476Z,98210.56
2022-08-05T22:12:50.530Z,98212.47
2022-08-05T22:16:04.632Z,98211.09
2022-08-05T22:19:15.126Z,98219.56
2022-08-05T22:22:53.650Z,98205.59
2022-08-05T22:26:16.956Z,98221.28
2022-08-05T22:29:26.191Z,98211.81
2022-08-05T22:32:30.003Z,98210.25
2022-08-05T22:35:48.616Z,98221.28
2022-08-05T22:38:53.735Z,98216.63
2022-08-05T22:42:11.141Z,98219.22
2022-08-05T22:45:16.449Z,98221.78
2022-08-05T22:48:22.169Z,98220.94
2022-08-05T22:52:03.127Z,98225.41
2022-08-05T22:54:52.677Z,98225.44
2022-08-05T22:57:56.511Z,98220.25
2022-08-05T23:01:00.794Z,98216.78
2022-08-05T23:04:04.059Z,98221.72
2022-08-05T23:07:08.221Z,98215.69
2022-08-05T23:10:11.816Z,98219.78
2022-08-05T23:13:14.416Z,98220.13
2022-08-05T23:16:26.070Z,98219.59
2022-08-05T23:19:38.388Z,98203.91
2022-08-05T23:22:47.855Z,98198.69
2022-08-05T23:25:55.130Z,98219.72
2022-08-05T23:28:58.442Z,98222.16
2022-08-05T23:32:01.261Z,98215.25
2022-08-05T23:35:05.465Z,98206.47
2022-08-05T23:38:08.333Z,98205.19
2022-08-05T23:41:15.093Z,98197.78
2022-08-05T23:44:19.785Z,98197.41
2022-08-05T23:47:27.892Z,98201.38
2022-08-05T23:50:36.201Z,98202.94
2022-08-05T23:53:46.725Z,98196.03
2022-08-05T23:56:49.829Z,98201.91
